Details of the Vacancies will be updated shortly Site under modification. Vacancies will be published soon.

Opportunities

To know the detailed description of a Notification, please click on the Notification Ref. link on each row. To know more details of the post such as Qualification required, Experience requirement, Scale of Pay, Max Age, etc. please click on button, which is shown against each post (on the right side of the table, beside 'Apply Now' button). Then proceed after reading the instructions.

No open vacancies now!.
Sl.No. Company Notification Date Notification Ref. Vac. Type Vac. ID Vacancy Name No of Vacancies Appl. Start Date Appl. End Date
 
1 KMRL 15 May 2020 KMRL/HR/20200501 Regular 236 DGM (RS) 1 15 May 2020 12:00 am 27 May 2020 11:59 pm      Under Process
2 KMRL 15 May 2020 KMRL/HR/20200501 Regular 238 DGM (E&M) 1 15 May 2020 12:00 am 27 May 2020 11:59 pm      Under Process
3 KMRL 15 May 2020 KMRL/HR/20200501 Regular 239 Manager(E&M) 3 15 May 2020 12:00 am 27 May 2020 11:59 pm      Under Process
4 KMRL 15 May 2020 KMRL/HR/20200501 Regular 240 Manager (L&E) 1 15 May 2020 12:00 am 27 May 2020 11:59 pm      Under Process
5 KMRL 15 May 2020 KMRL/HR/20200501 Regular 241 Manager (RS) 1 15 May 2020 12:00 am 27 May 2020 11:59 pm      Under Process
6 KMRL 18 May 2020 KMRL/HR/20200502 Contract 243 Manager (Q&S) - On Contract 1 18 May 2020 12:00 am 27 May 2020 11:59 pm      Under Process
7 KMRL 19 May 2020 KMRL/HR/20200103 Regular 245 Manager(Design) 1 19 May 2020 12:00 am 27 May 2020 11:59 pm      Under Process
8 KMRL 19 May 2020 KMRL/HR/20200103 Regular 246 Manager(Track) 1 19 May 2020 12:00 am 27 May 2020 11:59 pm      Under Process
9 KMRL 15 May 2020 KMRL/HR/20200501 Regular 237 DGM (P&T) 2 15 May 2020 12:00 am 27 May 2020 11:58 pm      Under Process
10 KMRL 18 Mar 2020 KMRL/HR/20200301 Regular 235 GM (Design) 1 18 Mar 2020 12:00 am 25 Apr 2020 11:59 pm      Under Process
1 to 10 of 11 Records
Results per page
Sl.No. Company Notification Date Notification Ref. Vac. Type Vac. ID Vacancy Name No of Vacancies Appl. Start Date Appl. End Date
  
41 KMRL 15 May 2017 KMRL/HR/20170515 Regular 175 AM (MMT) 1 15 May 2017 5:00 pm 29 May 2017 11:59 pm      Cancelled
42 KMRL 17 May 2017 KMRL/HR/20170502 Regular 176 DGM (Track) 1 17 May 2017 7:00 pm 29 May 2017 11:59 pm      None found suitable
43 KMRL 12 Apr 2017 KMRL/HR/20170402 Contract 174 JGM (Civil) 1 12 Apr 2017 10:00 am 30 Apr 2017 11:59 pm      Selected
44 KMWT 01 Apr 2017 KMRL/HR/20170401 Regular 173 DGM (Water Transport) 1 01 Apr 2017 10:00 am 17 Apr 2017 11:59 pm      Selected
45 KMRL 15 Mar 2017 KMRL/HR/20170301 Regular 172 DGM (Track) 1 15 Mar 2017 8:00 am 29 Mar 2017 11:59 pm      None found suitable
46 KMRL 08 Feb 2017 KMRL/HR/20170201 Regular 170 Executive Director 1 08 Feb 2017 8:00 am 22 Feb 2017 11:59 pm      Cancelled, Refund under process
47 KMRL 08 Feb 2017 KMRL/HR/20170202 Regular 171 GM (Water Transport) 1 08 Feb 2017 8:00 am 22 Feb 2017 11:59 pm      None found suitable
48 KMRL 10 Jan 2017 KMRL/HR/20170101 Regular 164 JGM (Power & Traction) 1 10 Jan 2017 11:45 pm 25 Jan 2017 11:59 pm      None found suitable
49 KMRL 10 Jan 2017 KMRL/HR/20170101 Regular 165 Legal Officer 1 10 Jan 2017 11:59 pm 25 Jan 2017 11:59 pm      Selected
50 KMRL 11 Jan 2017 KMRL/HR/20170101 Regular 168 DGM (Telecom) 1 11 Jan 2017 12:01 am 25 Jan 2017 11:59 pm      Selected
41 to 50 of 192 Records
Results per page